sensor_id;sensor_type;location;lat;lon;timestamp;temperature;humidity
19968;DHT22;10145;49.152;9.282;2024-02-23T00:01:44;6.90;99.90
19968;DHT22;10145;49.152;9.282;2024-02-23T00:04:09;6.90;99.90
19968;DHT22;10145;49.152;9.282;2024-02-23T00:06:35;6.90;99.90
19968;DHT22;10145;49.152;9.282;2024-02-23T00:09:01;6.90;99.90
19968;DHT22;10145;49.152;9.282;2024-02-23T00:11:26;6.80;99.90
19968;DHT22;10145;49.152;9.282;2024-02-23T00:13:53;6.80;99.90
19968;DHT22;10145;49.152;9.282;2024-02-23T00:16:19;6.80;99.90
19968;DHT22;10145;49.152;9.282;2024-02-23T00:18:45;6.80;99.90
19968;DHT22;10145;49.152;9.282;2024-02-23T00:21:11;6.70;99.90
19968;DHT22;10145;49.152;9.282;2024-02-23T00:23:36;6.70;99.90
19968;DHT22;10145;49.152;9.282;2024-02-23T00:26:02;6.70;99.90
19968;DHT22;10145;49.152;9.282;2024-02-23T00:28:28;6.70;99.90
19968;DHT22;10145;49.152;9.282;2024-02-23T00:30:54;6.60;99.90
19968;DHT22;10145;49.152;9.282;2024-02-23T00:33:19;6.60;99.90
19968;DHT22;10145;49.152;9.282;2024-02-23T00:35:45;6.60;99.90
19968;DHT22;10145;49.152;9.282;2024-02-23T00:38:10;6.60;99.90
19968;DHT22;10145;49.152;9.282;2024-02-23T00:40:36;6.50;99.90
19968;DHT22;10145;49.152;9.282;2024-02-23T00:43:02;6.50;99.90
19968;DHT22;10145;49.152;9.282;2024-02-23T00:45:28;6.50;99.90
19968;DHT22;10145;49.152;9.282;2024-02-23T00:47:54;6.60;99.90
19968;DHT22;10145;49.152;9.282;2024-02-23T00:50:19;6.50;99.90
19968;DHT22;10145;49.152;9.282;2024-02-23T00:52:45;6.50;99.90
19968;DHT22;10145;49.152;9.282;2024-02-23T00:55:11;6.50;99.90
19968;DHT22;10145;49.152;9.282;2024-02-23T00:57:37;6.50;99.90
19968;DHT22;10145;49.152;9.282;2024-02-23T01:00:04;6.40;99.90
19968;DHT22;10145;49.152;9.282;2024-02-23T01:02:31;6.40;99.90
19968;DHT22;10145;49.152;9.282;2024-02-23T01:04:57;6.30;99.90
19968;DHT22;10145;49.152;9.282;2024-02-23T01:07:24;6.30;99.90
19968;DHT22;10145;49.152;9.282;2024-02-23T01:09:49;6.30;99.90
19968;DHT22;10145;49.152;9.282;2024-02-23T01:12:15;6.30;99.90
19968;DHT22;10145;49.152;9.282;2024-02-23T01:14:41;6.40;99.90
19968;DHT22;10145;49.152;9.282;2024-02-23T01:17:06;6.40;99.90
19968;DHT22;10145;49.152;9.282;2024-02-23T01:19:32;6.40;99.90
19968;DHT22;10145;49.152;9.282;2024-02-23T01:21:57;6.60;99.90
19968;DHT22;10145;49.152;9.282;2024-02-23T01:24:28;6.50;99.90
19968;DHT22;10145;49.152;9.282;2024-02-23T01:26:55;6.30;99.90
19968;DHT22;10145;49.152;9.282;2024-02-23T01:29:21;6.20;99.90
19968;DHT22;10145;49.152;9.282;2024-02-23T01:31:48;6.20;99.90
19968;DHT22;10145;49.152;9.282;2024-02-23T01:34:13;6.10;99.90
19968;DHT22;10145;49.152;9.282;2024-02-23T01:36:39;6.10;99.90
19968;DHT22;10145;49.152;9.282;2024-02-23T01:39:05;6.10;99.90
19968;DHT22;10145;49.152;9.282;2024-02-23T01:41:31;6.20;99.90
19968;DHT22;10145;49.152;9.282;2024-02-23T01:43:57;6.10;99.90
19968;DHT22;10145;49.152;9.282;2024-02-23T01:46:23;6.00;99.90
19968;DHT22;10145;49.152;9.282;2024-02-23T01:48:49;6.00;99.90
19968;DHT22;10145;49.152;9.282;2024-02-23T01:51:14;6.00;99.90
19968;DHT22;10145;49.152;9.282;2024-02-23T01:53:40;5.90;99.90
19968;DHT22;10145;49.152;9.282;2024-02-23T01:56:06;6.00;99.90
19968;DHT22;10145;49.152;9.282;2024-02-23T01:58:34;5.90;99.90
19968;DHT22;10145;49.152;9.282;2024-02-23T02:01:00;5.90;99.90
19968;DHT22;10145;49.152;9.282;2024-02-23T02:03:26;6.20;99.90
19968;DHT22;10145;49.152;9.282;2024-02-23T02:05:53;6.00;99.90
19968;DHT22;10145;49.152;9.282;2024-02-23T02:08:19;6.00;99.90
19968;DHT22;10145;49.152;9.282;2024-02-23T02:10:45;6.20;99.90
19968;DHT22;10145;49.152;9.282;2024-02-23T02:13:12;5.90;99.90
19968;DHT22;10145;49.152;9.282;2024-02-23T02:15:38;5.90;99.90
19968;DHT22;10145;49.152;9.282;2024-02-23T02:18:03;6.00;99.90
19968;DHT22;10145;49.152;9.282;2024-02-23T02:20:32;6.00;99.90
19968;DHT22;10145;49.152;9.282;2024-02-23T02:22:58;5.90;99.90
19968;DHT22;10145;49.152;9.282;2024-02-23T02:25:24;5.90;99.90
19968;DHT22;10145;49.152;9.282;2024-02-23T02:27:49;5.90;99.90
19968;DHT22;10145;49.152;9.282;2024-02-23T02:30:15;5.90;99.90
19968;DHT22;10145;49.152;9.282;2024-02-23T02:32:40;5.80;99.90
19968;DHT22;10145;49.152;9.282;2024-02-23T02:35:06;5.80;99.90
19968;DHT22;10145;49.152;9.282;2024-02-23T02:37:32;5.90;99.90
19968;DHT22;10145;49.152;9.282;2024-02-23T02:39:57;5.80;99.90
19968;DHT22;10145;49.152;9.282;2024-02-23T02:42:23;5.80;99.90
19968;DHT22;10145;49.152;9.282;2024-02-23T02:44:49;5.90;99.90
19968;DHT22;10145;49.152;9.282;2024-02-23T02:47:14;5.80;99.90
19968;DHT22;10145;49.152;9.282;2024-02-23T02:49:40;5.80;99.90
19968;DHT22;10145;49.152;9.282;2024-02-23T02:52:06;5.80;99.90
19968;DHT22;10145;49.152;9.282;2024-02-23T02:54:33;5.80;99.90
19968;DHT22;10145;49.152;9.282;2024-02-23T02:56:59;5.90;99.90
19968;DHT22;10145;49.152;9.282;2024-02-23T02:59:25;5.90;99.90
19968;DHT22;10145;49.152;9.282;2024-02-23T03:01:50;5.90;99.90
19968;DHT22;10145;49.152;9.282;2024-02-23T03:04:16;6.00;99.90
19968;DHT22;10145;49.152;9.282;2024-02-23T03:06:41;5.90;99.90
19968;DHT22;10145;49.152;9.282;2024-02-23T03:09:07;5.90;99.90
19968;DHT22;10145;49.152;9.282;2024-02-23T03:11:33;6.10;99.90
19968;DHT22;10145;49.152;9.282;2024-02-23T03:13:58;5.90;99.90
19968;DHT22;10145;49.152;9.282;2024-02-23T03:16:24;6.00;99.90
19968;DHT22;10145;49.152;9.282;2024-02-23T03:18:51;6.00;99.90
19968;DHT22;10145;49.152;9.282;2024-02-23T03:21:19;6.00;99.90
19968;DHT22;10145;49.152;9.282;2024-02-23T03:23:45;5.90;99.90
19968;DHT22;10145;49.152;9.282;2024-02-23T03:26:10;6.00;99.90
19968;DHT22;10145;49.152;9.282;2024-02-23T03:28:36;5.90;99.90
19968;DHT22;10145;49.152;9.282;2024-02-23T03:31:02;5.90;99.90
19968;DHT22;10145;49.152;9.282;2024-02-23T03:33:27;5.90;99.90
19968;DHT22;10145;49.152;9.282;2024-02-23T03:35:53;6.00;99.90
19968;DHT22;10145;49.152;9.282;2024-02-23T03:38:18;6.00;99.90
19968;DHT22;10145;49.152;9.282;2024-02-23T03:40:44;6.00;99.90
19968;DHT22;10145;49.152;9.282;2024-02-23T03:43:09;5.90;99.90
19968;DHT22;10145;49.152;9.282;2024-02-23T03:45:35;5.90;99.90
19968;DHT22;10145;49.152;9.282;2024-02-23T03:48:03;5.90;99.90
19968;DHT22;10145;49.152;9.282;2024-02-23T03:50:29;5.90;99.90
19968;DHT22;10145;49.152;9.282;2024-02-23T03:52:55;5.90;99.90
19968;DHT22;10145;49.152;9.282;2024-02-23T03:55:20;5.90;99.90
19968;DHT22;10145;49.152;9.282;2024-02-23T03:57:47;6.00;99.90
19968;DHT22;10145;49.152;9.282;2024-02-23T04:00:13;5.80;99.90
19968;DHT22;10145;49.152;9.282;2024-02-23T04:02:39;5.80;99.90
19968;DHT22;10145;49.152;9.282;2024-02-23T04:05:05;5.90;99.90
19968;DHT22;10145;49.152;9.282;2024-02-23T04:07:31;5.80;99.90
19968;DHT22;10145;49.152;9.282;2024-02-23T04:09:56;5.80;99.90
19968;DHT22;10145;49.152;9.282;2024-02-23T04:12:22;5.80;99.90
19968;DHT22;10145;49.152;9.282;2024-02-23T04:14:47;5.70;99.90
19968;DHT22;10145;49.152;9.282;2024-02-23T04:17:13;5.60;99.90
19968;DHT22;10145;49.152;9.282;2024-02-23T04:19:40;5.60;99.90
19968;DHT22;10145;49.152;9.282;2024-02-23T04:22:06;5.50;99.90
19968;DHT22;10145;49.152;9.282;2024-02-23T04:24:34;5.50;99.90
19968;DHT22;10145;49.152;9.282;2024-02-23T04:26:59;5.50;99.90
19968;DHT22;10145;49.152;9.282;2024-02-23T04:29:25;5.50;99.90
19968;DHT22;10145;49.152;9.282;2024-02-23T04:31:51;5.50;99.90
19968;DHT22;10145;49.152;9.282;2024-02-23T04:34:16;5.50;99.90
19968;DHT22;10145;49.152;9.282;2024-02-23T04:36:42;5.60;99.90
19968;DHT22;10145;49.152;9.282;2024-02-23T04:39:07;5.60;99.90
19968;DHT22;10145;49.152;9.282;2024-02-23T04:41:33;5.60;99.90
19968;DHT22;10145;49.152;9.282;2024-02-23T04:43:59;5.60;99.90
19968;DHT22;10145;49.152;9.282;2024-02-23T04:46:26;5.50;99.90
19968;DHT22;10145;49.152;9.282;2024-02-23T04:48:52;5.60;99.90
19968;DHT22;10145;49.152;9.282;2024-02-23T04:51:17;5.50;99.90
19968;DHT22;10145;49.152;9.282;2024-02-23T04:53:44;5.50;99.90
19968;DHT22;10145;49.152;9.282;2024-02-23T04:56:09;5.60;99.90
19968;DHT22;10145;49.152;9.282;2024-02-23T04:58:35;5.60;99.90
19968;DHT22;10145;49.152;9.282;2024-02-23T05:01:01;5.60;99.90
19968;DHT22;10145;49.152;9.282;2024-02-23T05:03:28;5.50;99.90
19968;DHT22;10145;49.152;9.282;2024-02-23T05:05:54;5.50;99.90
19968;DHT22;10145;49.152;9.282;2024-02-23T05:08:20;5.50;99.90
19968;DHT22;10145;49.152;9.282;2024-02-23T05:10:46;5.60;99.90
19968;DHT22;10145;49.152;9.282;2024-02-23T05:13:12;5.50;99.90
19968;DHT22;10145;49.152;9.282;2024-02-23T05:15:38;5.50;99.90
19968;DHT22;10145;49.152;9.282;2024-02-23T05:18:04;5.40;99.90
19968;DHT22;10145;49.152;9.282;2024-02-23T05:20:30;5.50;99.90
19968;DHT22;10145;49.152;9.282;2024-02-23T05:22:55;5.50;99.90
19968;DHT22;10145;49.152;9.282;2024-02-23T05:25:21;5.40;99.90
19968;DHT22;10145;49.152;9.282;2024-02-23T05:27:46;5.40;99.90
19968;DHT22;10145;49.152;9.282;2024-02-23T05:30:12;5.40;99.90
19968;DHT22;10145;49.152;9.282;2024-02-23T05:32:38;5.40;99.90
19968;DHT22;10145;49.152;9.282;2024-02-23T05:35:04;5.40;99.90
19968;DHT22;10145;49.152;9.282;2024-02-23T05:37:30;5.40;99.90
19968;DHT22;10145;49.152;9.282;2024-02-23T05:39:55;5.40;99.90
19968;DHT22;10145;49.152;9.282;2024-02-23T05:42:21;5.40;99.90
19968;DHT22;10145;49.152;9.282;2024-02-23T05:44:47;5.50;99.90
19968;DHT22;10145;49.152;9.282;2024-02-23T05:47:14;5.40;99.90
19968;DHT22;10145;49.152;9.282;2024-02-23T05:49:39;5.40;99.90
19968;DHT22;10145;49.152;9.282;2024-02-23T05:52:05;5.30;99.90
19968;DHT22;10145;49.152;9.282;2024-02-23T05:54:31;5.30;99.90
19968;DHT22;10145;49.152;9.282;2024-02-23T05:56:56;5.30;99.90
19968;DHT22;10145;49.152;9.282;2024-02-23T05:59:22;5.30;99.90
19968;DHT22;10145;49.152;9.282;2024-02-23T06:01:47;5.10;99.90
19968;DHT22;10145;49.152;9.282;2024-02-23T06:04:13;5.30;99.90
19968;DHT22;10145;49.152;9.282;2024-02-23T06:06:41;5.30;99.90
19968;DHT22;10145;49.152;9.282;2024-02-23T06:09:08;5.20;99.90
19968;DHT22;10145;49.152;9.282;2024-02-23T06:11:33;5.30;99.90
19968;DHT22;10145;49.152;9.282;2024-02-23T06:13:59;5.20;99.90
19968;DHT22;10145;49.152;9.282;2024-02-23T06:16:24;5.20;99.90
19968;DHT22;10145;49.152;9.282;2024-02-23T06:18:50;5.20;99.90
19968;DHT22;10145;49.152;9.282;2024-02-23T06:21:17;5.20;99.90
19968;DHT22;10145;49.152;9.282;2024-02-23T06:23:43;5.10;99.90
19968;DHT22;10145;49.152;9.282;2024-02-23T06:26:09;5.10;99.90
19968;DHT22;10145;49.152;9.282;2024-02-23T06:28:35;5.10;99.90
19968;DHT22;10145;49.152;9.282;2024-02-23T06:31:03;5.10;99.90
19968;DHT22;10145;49.152;9.282;2024-02-23T06:33:30;5.10;99.90
19968;DHT22;10145;49.152;9.282;2024-02-23T06:35:56;5.10;99.90
19968;DHT22;10145;49.152;9.282;2024-02-23T06:38:21;5.00;99.90
19968;DHT22;10145;49.152;9.282;2024-02-23T06:40:47;5.00;99.90
19968;DHT22;10145;49.152;9.282;2024-02-23T06:43:13;5.00;99.90
19968;DHT22;10145;49.152;9.282;2024-02-23T06:45:38;5.00;99.90
19968;DHT22;10145;49.152;9.282;2024-02-23T06:48:04;5.10;99.90
19968;DHT22;10145;49.152;9.282;2024-02-23T06:50:30;5.10;99.90
19968;DHT22;10145;49.152;9.282;2024-02-23T06:52:56;5.20;99.90
19968;DHT22;10145;49.152;9.282;2024-02-23T06:55:21;5.20;99.90
19968;DHT22;10145;49.152;9.282;2024-02-23T06:57:47;5.30;99.90
19968;DHT22;10145;49.152;9.282;2024-02-23T07:00:13;5.40;99.90
19968;DHT22;10145;49.152;9.282;2024-02-23T07:02:39;5.30;99.90
19968;DHT22;10145;49.152;9.282;2024-02-23T07:05:04;5.30;99.90
19968;DHT22;10145;49.152;9.282;2024-02-23T07:07:31;5.30;99.90
19968;DHT22;10145;49.152;9.282;2024-02-23T07:09:59;5.30;99.90
19968;DHT22;10145;49.152;9.282;2024-02-23T07:12:24;5.30;99.90
19968;DHT22;10145;49.152;9.282;2024-02-23T07:14:52;5.30;99.90
19968;DHT22;10145;49.152;9.282;2024-02-23T07:17:18;5.20;99.90
19968;DHT22;10145;49.152;9.282;2024-02-23T07:19:44;5.30;99.90
19968;DHT22;10145;49.152;9.282;2024-02-23T07:22:10;5.30;99.90
19968;DHT22;10145;49.152;9.282;2024-02-23T07:24:39;5.30;99.90
19968;DHT22;10145;49.152;9.282;2024-02-23T07:27:06;5.30;99.90
19968;DHT22;10145;49.152;9.282;2024-02-23T07:29:31;5.40;99.90
19968;DHT22;10145;49.152;9.282;2024-02-23T07:31:57;5.10;99.90
19968;DHT22;10145;49.152;9.282;2024-02-23T07:34:22;5.50;99.90
19968;DHT22;10145;49.152;9.282;2024-02-23T07:36:51;5.40;99.90
19968;DHT22;10145;49.152;9.282;2024-02-23T07:39:16;5.40;99.90
19968;DHT22;10145;49.152;9.282;2024-02-23T07:41:42;5.60;99.90
19968;DHT22;10145;49.152;9.282;2024-02-23T07:44:08;5.40;99.90
19968;DHT22;10145;49.152;9.282;2024-02-23T07:46:33;5.40;99.90
19968;DHT22;10145;49.152;9.282;2024-02-23T07:48:59;5.40;99.90
19968;DHT22;10145;49.152;9.282;2024-02-23T07:51:25;5.40;99.90
19968;DHT22;10145;49.152;9.282;2024-02-23T07:53:51;5.50;99.90
19968;DHT22;10145;49.152;9.282;2024-02-23T07:56:16;5.60;99.90
19968;DHT22;10145;49.152;9.282;2024-02-23T07:58:42;5.60;99.90
19968;DHT22;10145;49.152;9.282;2024-02-23T08:01:08;5.60;99.90
19968;DHT22;10145;49.152;9.282;2024-02-23T08:03:33;5.60;99.90
19968;DHT22;10145;49.152;9.282;2024-02-23T08:05:59;5.50;99.90
19968;DHT22;10145;49.152;9.282;2024-02-23T08:08:25;5.50;99.90
19968;DHT22;10145;49.152;9.282;2024-02-23T08:10:52;5.40;99.90
19968;DHT22;10145;49.152;9.282;2024-02-23T08:13:17;5.30;99.90
19968;DHT22;10145;49.152;9.282;2024-02-23T08:15:43;5.10;99.90
19968;DHT22;10145;49.152;9.282;2024-02-23T08:18:09;5.00;99.90
19968;DHT22;10145;49.152;9.282;2024-02-23T08:20:35;4.90;99.90
19968;DHT22;10145;49.152;9.282;2024-02-23T08:23:01;4.80;99.90
19968;DHT22;10145;49.152;9.282;2024-02-23T08:25:27;4.70;99.90
19968;DHT22;10145;49.152;9.282;2024-02-23T08:27:55;4.90;99.90
19968;DHT22;10145;49.152;9.282;2024-02-23T08:30:22;4.80;99.90
19968;DHT22;10145;49.152;9.282;2024-02-23T08:32:47;4.60;99.90
19968;DHT22;10145;49.152;9.282;2024-02-23T08:35:13;4.90;99.90
19968;DHT22;10145;49.152;9.282;2024-02-23T08:37:40;4.80;99.90
19968;DHT22;10145;49.152;9.282;2024-02-23T08:40:08;4.80;99.90
19968;DHT22;10145;49.152;9.282;2024-02-23T08:42:34;4.80;99.90
19968;DHT22;10145;49.152;9.282;2024-02-23T08:44:59;4.80;99.90
19968;DHT22;10145;49.152;9.282;2024-02-23T08:47:25;4.90;99.90
19968;DHT22;10145;49.152;9.282;2024-02-23T08:49:53;4.80;99.90
19968;DHT22;10145;49.152;9.282;2024-02-23T08:52:19;4.80;99.90
19968;DHT22;10145;49.152;9.282;2024-02-23T08:54:44;4.90;99.90
19968;DHT22;10145;49.152;9.282;2024-02-23T08:57:10;4.70;99.90
19968;DHT22;10145;49.152;9.282;2024-02-23T08:59:36;4.70;99.90
19968;DHT22;10145;49.152;9.282;2024-02-23T09:02:02;4.70;99.90
19968;DHT22;10145;49.152;9.282;2024-02-23T09:04:27;4.70;99.90
19968;DHT22;10145;49.152;9.282;2024-02-23T09:06:53;4.70;99.90
19968;DHT22;10145;49.152;9.282;2024-02-23T09:09:19;4.70;99.90
19968;DHT22;10145;49.152;9.282;2024-02-23T09:11:44;4.80;99.90
19968;DHT22;10145;49.152;9.282;2024-02-23T09:14:10;5.00;99.90
19968;DHT22;10145;49.152;9.282;2024-02-23T09:16:35;5.10;99.90
19968;DHT22;10145;49.152;9.282;2024-02-23T09:19:01;5.30;99.90
19968;DHT22;10145;49.152;9.282;2024-02-23T09:21:27;5.50;99.90
19968;DHT22;10145;49.152;9.282;2024-02-23T09:23:52;5.60;99.90
19968;DHT22;10145;49.152;9.282;2024-02-23T09:26:18;5.70;99.90
19968;DHT22;10145;49.152;9.282;2024-02-23T09:28:43;5.90;99.90
19968;DHT22;10145;49.152;9.282;2024-02-23T09:31:10;6.10;99.90
19968;DHT22;10145;49.152;9.282;2024-02-23T09:33:36;6.20;99.90
19968;DHT22;10145;49.152;9.282;2024-02-23T09:36:02;6.30;99.90
19968;DHT22;10145;49.152;9.282;2024-02-23T09:38:28;6.30;99.90
19968;DHT22;10145;49.152;9.282;2024-02-23T09:40:53;6.20;99.90
19968;DHT22;10145;49.152;9.282;2024-02-23T09:43:21;6.20;99.90
19968;DHT22;10145;49.152;9.282;2024-02-23T09:45:51;6.30;99.90
19968;DHT22;10145;49.152;9.282;2024-02-23T09:48:18;6.40;99.90
19968;DHT22;10145;49.152;9.282;2024-02-23T09:50:45;6.60;99.90
19968;DHT22;10145;49.152;9.282;2024-02-23T09:53:13;6.80;99.90
19968;DHT22;10145;49.152;9.282;2024-02-23T09:55:39;7.00;99.90
19968;DHT22;10145;49.152;9.282;2024-02-23T09:58:06;7.30;99.90
19968;DHT22;10145;49.152;9.282;2024-02-23T10:00:35;7.50;99.90
19968;DHT22;10145;49.152;9.282;2024-02-23T10:03:02;7.90;99.90
19968;DHT22;10145;49.152;9.282;2024-02-23T10:05:30;8.10;99.90
19968;DHT22;10145;49.152;9.282;2024-02-23T10:07:57;8.30;99.90
19968;DHT22;10145;49.152;9.282;2024-02-23T10:10:33;8.40;99.90
19968;DHT22;10145;49.152;9.282;2024-02-23T10:13:00;8.30;99.90
19968;DHT22;10145;49.152;9.282;2024-02-23T10:15:28;8.30;99.90
19968;DHT22;10145;49.152;9.282;2024-02-23T10:17:54;8.30;99.90
19968;DHT22;10145;49.152;9.282;2024-02-23T10:20:20;8.20;99.90
19968;DHT22;10145;49.152;9.282;2024-02-23T10:22:45;8.40;99.90
19968;DHT22;10145;49.152;9.282;2024-02-23T10:25:12;8.20;99.90
19968;DHT22;10145;49.152;9.282;2024-02-23T10:27:37;8.20;99.90
19968;DHT22;10145;49.152;9.282;2024-02-23T10:30:03;8.10;99.90
19968;DHT22;10145;49.152;9.282;2024-02-23T10:32:29;8.00;99.90
19968;DHT22;10145;49.152;9.282;2024-02-23T10:35:00;7.90;99.90
19968;DHT22;10145;49.152;9.282;2024-02-23T10:37:26;8.00;99.90
19968;DHT22;10145;49.152;9.282;2024-02-23T10:39:57;8.00;99.90
19968;DHT22;10145;49.152;9.282;2024-02-23T10:42:24;8.10;99.90
19968;DHT22;10145;49.152;9.282;2024-02-23T10:44:52;8.10;99.90
19968;DHT22;10145;49.152;9.282;2024-02-23T10:47:20;8.20;99.90
19968;DHT22;10145;49.152;9.282;2024-02-23T10:49:47;8.60;99.90
19968;DHT22;10145;49.152;9.282;2024-02-23T10:52:13;8.90;99.90
19968;DHT22;10145;49.152;9.282;2024-02-23T10:54:40;9.20;99.90
19968;DHT22;10145;49.152;9.282;2024-02-23T10:57:07;9.30;99.90
19968;DHT22;10145;49.152;9.282;2024-02-23T10:59:32;9.10;99.90
19968;DHT22;10145;49.152;9.282;2024-02-23T11:01:59;9.10;99.90
19968;DHT22;10145;49.152;9.282;2024-02-23T11:04:27;9.10;99.90
19968;DHT22;10145;49.152;9.282;2024-02-23T11:06:54;9.00;99.90
19968;DHT22;10145;49.152;9.282;2024-02-23T11:09:24;9.00;99.90
19968;DHT22;10145;49.152;9.282;2024-02-23T11:11:54;9.10;99.90
19968;DHT22;10145;49.152;9.282;2024-02-23T11:14:34;9.30;99.90
19968;DHT22;10145;49.152;9.282;2024-02-23T11:17:00;9.10;99.90
19968;DHT22;10145;49.152;9.282;2024-02-23T11:19:33;9.00;99.90
19968;DHT22;10145;49.152;9.282;2024-02-23T11:22:01;8.80;99.90
19968;DHT22;10145;49.152;9.282;2024-02-23T11:24:30;8.80;99.90
19968;DHT22;10145;49.152;9.282;2024-02-23T11:27:00;8.80;99.90
19968;DHT22;10145;49.152;9.282;2024-02-23T11:29:33;8.70;99.90
19968;DHT22;10145;49.152;9.282;2024-02-23T11:32:00;9.00;99.90
19968;DHT22;10145;49.152;9.282;2024-02-23T11:34:28;9.20;99.90
19968;DHT22;10145;49.152;9.282;2024-02-23T11:36:53;9.30;99.90
19968;DHT22;10145;49.152;9.282;2024-02-23T11:39:20;9.30;99.90
19968;DHT22;10145;49.152;9.282;2024-02-23T11:41:48;9.20;99.90
19968;DHT22;10145;49.152;9.282;2024-02-23T11:44:17;9.30;99.90
19968;DHT22;10145;49.152;9.282;2024-02-23T11:46:46;9.40;99.90
19968;DHT22;10145;49.152;9.282;2024-02-23T11:49:14;9.60;99.90
19968;DHT22;10145;49.152;9.282;2024-02-23T11:51:39;9.30;99.90
19968;DHT22;10145;49.152;9.282;2024-02-23T11:54:06;9.40;99.90
19968;DHT22;10145;49.152;9.282;2024-02-23T11:56:31;9.50;99.90
19968;DHT22;10145;49.152;9.282;2024-02-23T11:58:57;9.50;99.90
19968;DHT22;10145;49.152;9.282;2024-02-23T12:01:23;9.20;99.90
19968;DHT22;10145;49.152;9.282;2024-02-23T12:03:49;9.30;99.90
19968;DHT22;10145;49.152;9.282;2024-02-23T12:06:15;9.40;99.90
19968;DHT22;10145;49.152;9.282;2024-02-23T12:08:44;9.50;99.90
19968;DHT22;10145;49.152;9.282;2024-02-23T12:11:11;9.50;99.90
19968;DHT22;10145;49.152;9.282;2024-02-23T12:13:38;9.70;99.90
19968;DHT22;10145;49.152;9.282;2024-02-23T12:16:04;9.50;99.90
19968;DHT22;10145;49.152;9.282;2024-02-23T12:18:33;9.40;99.90
19968;DHT22;10145;49.152;9.282;2024-02-23T12:21:04;9.70;99.90
19968;DHT22;10145;49.152;9.282;2024-02-23T12:23:48;10.00;99.90
19968;DHT22;10145;49.152;9.282;2024-02-23T12:26:15;10.40;99.90
19968;DHT22;10145;49.152;9.282;2024-02-23T12:28:42;10.80;99.90
19968;DHT22;10145;49.152;9.282;2024-02-23T12:31:08;10.80;99.90
19968;DHT22;10145;49.152;9.282;2024-02-23T12:33:35;10.80;99.90
19968;DHT22;10145;49.152;9.282;2024-02-23T12:36:04;10.70;99.90
19968;DHT22;10145;49.152;9.282;2024-02-23T12:38:31;10.80;99.90
19968;DHT22;10145;49.152;9.282;2024-02-23T12:40:56;10.40;99.90
19968;DHT22;10145;49.152;9.282;2024-02-23T12:43:23;10.00;99.90
19968;DHT22;10145;49.152;9.282;2024-02-23T12:45:53;9.80;99.90
19968;DHT22;10145;49.152;9.282;2024-02-23T12:48:19;9.60;99.90
19968;DHT22;10145;49.152;9.282;2024-02-23T12:50:45;9.30;99.90
19968;DHT22;10145;49.152;9.282;2024-02-23T12:53:35;9.20;99.90
19968;DHT22;10145;49.152;9.282;2024-02-23T12:56:03;8.80;99.90
19968;DHT22;10145;49.152;9.282;2024-02-23T12:58:30;8.90;99.90
19968;DHT22;10145;49.152;9.282;2024-02-23T13:00:56;9.00;99.90
19968;DHT22;10145;49.152;9.282;2024-02-23T13:03:22;9.00;99.90
19968;DHT22;10145;49.152;9.282;2024-02-23T13:05:48;9.00;99.90
19968;DHT22;10145;49.152;9.282;2024-02-23T13:08:14;9.00;99.90
19968;DHT22;10145;49.152;9.282;2024-02-23T13:10:39;9.00;99.90
19968;DHT22;10145;49.152;9.282;2024-02-23T13:13:05;9.10;99.90
19968;DHT22;10145;49.152;9.282;2024-02-23T13:15:30;9.20;99.90
19968;DHT22;10145;49.152;9.282;2024-02-23T13:17:56;9.30;99.90
19968;DHT22;10145;49.152;9.282;2024-02-23T13:20:22;9.30;99.90
19968;DHT22;10145;49.152;9.282;2024-02-23T13:22:49;9.30;99.90
19968;DHT22;10145;49.152;9.282;2024-02-23T13:25:15;9.40;99.90
19968;DHT22;10145;49.152;9.282;2024-02-23T13:27:40;9.50;99.90
19968;DHT22;10145;49.152;9.282;2024-02-23T13:30:06;9.70;99.90
19968;DHT22;10145;49.152;9.282;2024-02-23T13:32:32;9.70;99.90
19968;DHT22;10145;49.152;9.282;2024-02-23T13:34:58;9.80;99.90
19968;DHT22;10145;49.152;9.282;2024-02-23T13:37:23;9.80;99.90
19968;DHT22;10145;49.152;9.282;2024-02-23T13:39:49;9.60;99.90
19968;DHT22;10145;49.152;9.282;2024-02-23T13:42:15;9.70;99.90
19968;DHT22;10145;49.152;9.282;2024-02-23T13:44:40;10.00;99.90
19968;DHT22;10145;49.152;9.282;2024-02-23T13:47:06;10.30;99.90
19968;DHT22;10145;49.152;9.282;2024-02-23T13:49:32;10.40;99.90
19968;DHT22;10145;49.152;9.282;2024-02-23T13:51:58;10.60;99.90
19968;DHT22;10145;49.152;9.282;2024-02-23T13:54:23;10.50;99.90
19968;DHT22;10145;49.152;9.282;2024-02-23T13:56:49;10.30;99.90
19968;DHT22;10145;49.152;9.282;2024-02-23T13:59:15;10.30;99.90
19968;DHT22;10145;49.152;9.282;2024-02-23T14:01:41;10.30;99.90
19968;DHT22;10145;49.152;9.282;2024-02-23T14:04:07;10.30;99.90
19968;DHT22;10145;49.152;9.282;2024-02-23T14:06:33;10.10;99.90
19968;DHT22;10145;49.152;9.282;2024-02-23T14:08:59;10.00;99.90
19968;DHT22;10145;49.152;9.282;2024-02-23T14:11:24;10.10;99.90
19968;DHT22;10145;49.152;9.282;2024-02-23T14:13:50;10.30;99.90
19968;DHT22;10145;49.152;9.282;2024-02-23T14:16:16;10.40;99.90
19968;DHT22;10145;49.152;9.282;2024-02-23T14:18:42;10.50;99.90
19968;DHT22;10145;49.152;9.282;2024-02-23T14:21:10;10.30;99.90
19968;DHT22;10145;49.152;9.282;2024-02-23T14:23:36;10.30;99.90
19968;DHT22;10145;49.152;9.282;2024-02-23T14:26:02;10.00;99.90
19968;DHT22;10145;49.152;9.282;2024-02-23T14:28:28;9.90;99.90
19968;DHT22;10145;49.152;9.282;2024-02-23T14:30:53;9.90;99.90
19968;DHT22;10145;49.152;9.282;2024-02-23T14:33:19;9.90;99.90
19968;DHT22;10145;49.152;9.282;2024-02-23T14:35:45;9.90;99.90
19968;DHT22;10145;49.152;9.282;2024-02-23T14:38:11;10.10;99.90
19968;DHT22;10145;49.152;9.282;2024-02-23T14:40:37;10.20;99.90
19968;DHT22;10145;49.152;9.282;2024-02-23T14:43:03;10.20;99.90
19968;DHT22;10145;49.152;9.282;2024-02-23T14:45:29;10.20;99.90
19968;DHT22;10145;49.152;9.282;2024-02-23T14:47:54;10.20;99.90
19968;DHT22;10145;49.152;9.282;2024-02-23T14:50:20;10.00;99.90
19968;DHT22;10145;49.152;9.282;2024-02-23T14:52:45;10.00;99.90
19968;DHT22;10145;49.152;9.282;2024-02-23T14:55:11;9.90;99.90
19968;DHT22;10145;49.152;9.282;2024-02-23T14:57:40;9.80;99.90
19968;DHT22;10145;49.152;9.282;2024-02-23T15:00:06;9.70;99.90
19968;DHT22;10145;49.152;9.282;2024-02-23T15:02:32;9.60;99.90
19968;DHT22;10145;49.152;9.282;2024-02-23T15:04:58;9.50;99.90
19968;DHT22;10145;49.152;9.282;2024-02-23T15:07:23;9.40;99.90
19968;DHT22;10145;49.152;9.282;2024-02-23T15:09:49;9.40;99.90
19968;DHT22;10145;49.152;9.282;2024-02-23T15:12:14;9.20;99.90
19968;DHT22;10145;49.152;9.282;2024-02-23T15:14:40;9.10;99.90
19968;DHT22;10145;49.152;9.282;2024-02-23T15:17:06;9.10;99.90
19968;DHT22;10145;49.152;9.282;2024-02-23T15:19:31;9.20;99.90
19968;DHT22;10145;49.152;9.282;2024-02-23T15:21:57;9.10;99.90
19968;DHT22;10145;49.152;9.282;2024-02-23T15:24:23;8.90;99.90
19968;DHT22;10145;49.152;9.282;2024-02-23T15:26:52;8.90;99.90
19968;DHT22;10145;49.152;9.282;2024-02-23T15:29:18;8.80;99.90
19968;DHT22;10145;49.152;9.282;2024-02-23T15:31:43;8.70;99.90
19968;DHT22;10145;49.152;9.282;2024-02-23T15:34:10;8.70;99.90
19968;DHT22;10145;49.152;9.282;2024-02-23T15:36:36;8.70;99.90
19968;DHT22;10145;49.152;9.282;2024-02-23T15:39:01;8.70;99.90